sensor_id;sensor_type;location;lat;lon;timestamp;P1;durP1;ratioP1;P2;durP2;ratioP2
34832;SDS011;55941;50.800;4.342;2023-03-01T00:01:30;10.50;;;6.50;;
34832;SDS011;55941;50.800;4.342;2023-03-01T00:03:56;16.58;;;6.70;;
34832;SDS011;55941;50.800;4.342;2023-03-01T00:06:23;13.77;;;6.63;;
34832;SDS011;55941;50.800;4.342;2023-03-01T00:08:50;11.32;;;6.50;;
34832;SDS011;55941;50.800;4.342;2023-03-01T00:11:17;10.00;;;7.00;;
34832;SDS011;55941;50.800;4.342;2023-03-01T00:13:45;10.30;;;7.05;;
34832;SDS011;55941;50.800;4.342;2023-03-01T00:16:13;10.13;;;6.30;;
34832;SDS011;55941;50.800;4.342;2023-03-01T00:18:45;13.48;;;7.40;;
34832;SDS011;55941;50.800;4.342;2023-03-01T00:21:11;12.38;;;6.68;;
34832;SDS011;55941;50.800;4.342;2023-03-01T00:23:37;15.75;;;7.18;;
34832;SDS011;55941;50.800;4.342;2023-03-01T00:26:07;11.35;;;6.78;;
34832;SDS011;55941;50.800;4.342;2023-03-01T00:28:35;12.45;;;6.88;;
34832;SDS011;55941;50.800;4.342;2023-03-01T00:31:05;15.13;;;7.03;;
34832;SDS011;55941;50.800;4.342;2023-03-01T00:33:32;12.35;;;6.68;;
34832;SDS011;55941;50.800;4.342;2023-03-01T00:35:59;16.80;;;6.85;;
34832;SDS011;55941;50.800;4.342;2023-03-01T00:38:25;12.48;;;6.97;;
34832;SDS011;55941;50.800;4.342;2023-03-01T00:40:52;15.95;;;7.47;;
34832;SDS011;55941;50.800;4.342;2023-03-01T00:43:18;11.13;;;6.72;;
34832;SDS011;55941;50.800;4.342;2023-03-01T00:45:44;11.13;;;6.50;;
34832;SDS011;55941;50.800;4.342;2023-03-01T00:48:10;14.98;;;7.43;;
34832;SDS011;55941;50.800;4.342;2023-03-01T00:50:36;11.10;;;7.47;;
34832;SDS011;55941;50.800;4.342;2023-03-01T00:53:01;14.38;;;7.65;;
34832;SDS011;55941;50.800;4.342;2023-03-01T00:55:27;16.73;;;7.65;;
34832;SDS011;55941;50.800;4.342;2023-03-01T00:57:53;13.15;;;6.78;;
34832;SDS011;55941;50.800;4.342;2023-03-01T01:00:19;14.65;;;7.47;;
34832;SDS011;55941;50.800;4.342;2023-03-01T01:02:45;15.93;;;7.20;;
34832;SDS011;55941;50.800;4.342;2023-03-01T01:05:11;16.58;;;7.53;;
34832;SDS011;55941;50.800;4.342;2023-03-01T01:07:37;10.48;;;6.78;;
34832;SDS011;55941;50.800;4.342;2023-03-01T01:10:04;12.43;;;6.70;;
34832;SDS011;55941;50.800;4.342;2023-03-01T01:12:30;11.90;;;7.50;;
34832;SDS011;55941;50.800;4.342;2023-03-01T01:14:56;11.63;;;6.80;;
34832;SDS011;55941;50.800;4.342;2023-03-01T01:17:22;17.85;;;8.38;;
34832;SDS011;55941;50.800;4.342;2023-03-01T01:19:48;9.55;;;6.97;;
34832;SDS011;55941;50.800;4.342;2023-03-01T01:22:14;13.02;;;7.38;;
34832;SDS011;55941;50.800;4.342;2023-03-01T01:24:40;14.05;;;7.80;;
34832;SDS011;55941;50.800;4.342;2023-03-01T01:27:06;9.45;;;6.95;;
34832;SDS011;55941;50.800;4.342;2023-03-01T01:29:32;15.38;;;6.95;;
34832;SDS011;55941;50.800;4.342;2023-03-01T01:31:58;16.42;;;6.80;;
34832;SDS011;55941;50.800;4.342;2023-03-01T01:34:25;25.05;;;7.60;;
34832;SDS011;55941;50.800;4.342;2023-03-01T01:36:51;18.42;;;6.80;;
34832;SDS011;55941;50.800;4.342;2023-03-01T01:39:19;13.73;;;7.03;;
34832;SDS011;55941;50.800;4.342;2023-03-01T01:41:45;9.50;;;6.47;;
34832;SDS011;55941;50.800;4.342;2023-03-01T01:44:12;12.25;;;7.28;;
34832;SDS011;55941;50.800;4.342;2023-03-01T01:49:35;15.77;;;7.15;;
34832;SDS011;55941;50.800;4.342;2023-03-01T01:54:43;11.23;;;7.43;;
34832;SDS011;55941;50.800;4.342;2023-03-01T01:57:22;13.88;;;6.82;;
34832;SDS011;55941;50.800;4.342;2023-03-01T01:59:53;12.32;;;6.97;;
34832;SDS011;55941;50.800;4.342;2023-03-01T02:02:23;20.55;;;7.68;;
34832;SDS011;55941;50.800;4.342;2023-03-01T02:04:50;10.65;;;7.07;;
34832;SDS011;55941;50.800;4.342;2023-03-01T02:07:21;13.80;;;6.90;;
34832;SDS011;55941;50.800;4.342;2023-03-01T02:09:49;11.52;;;6.57;;
34832;SDS011;55941;50.800;4.342;2023-03-01T02:12:18;11.48;;;6.60;;
34832;SDS011;55941;50.800;4.342;2023-03-01T02:14:46;18.42;;;7.45;;
34832;SDS011;55941;50.800;4.342;2023-03-01T02:17:12;11.68;;;7.65;;
34832;SDS011;55941;50.800;4.342;2023-03-01T02:22:30;17.77;;;7.68;;
34832;SDS011;55941;50.800;4.342;2023-03-01T02:25:00;11.52;;;7.13;;
34832;SDS011;55941;50.800;4.342;2023-03-01T02:30:12;11.20;;;7.10;;
34832;SDS011;55941;50.800;4.342;2023-03-01T02:32:41;15.35;;;7.00;;
34832;SDS011;55941;50.800;4.342;2023-03-01T02:35:12;15.38;;;7.25;;
34832;SDS011;55941;50.800;4.342;2023-03-01T02:37:40;13.30;;;6.50;;
34832;SDS011;55941;50.800;4.342;2023-03-01T02:40:09;13.05;;;8.23;;
34832;SDS011;55941;50.800;4.342;2023-03-01T02:42:43;10.75;;;6.93;;
34832;SDS011;55941;50.800;4.342;2023-03-01T02:45:15;12.57;;;7.32;;
34832;SDS011;55941;50.800;4.342;2023-03-01T02:47:41;12.38;;;7.45;;
34832;SDS011;55941;50.800;4.342;2023-03-01T02:50:12;18.55;;;7.82;;
34832;SDS011;55941;50.800;4.342;2023-03-01T02:53:11;12.18;;;7.00;;
34832;SDS011;55941;50.800;4.342;2023-03-01T02:55:41;14.30;;;7.68;;
34832;SDS011;55941;50.800;4.342;2023-03-01T02:58:08;11.02;;;7.22;;
34832;SDS011;55941;50.800;4.342;2023-03-01T03:00:38;17.45;;;7.40;;
34832;SDS011;55941;50.800;4.342;2023-03-01T03:03:10;15.77;;;7.38;;
34832;SDS011;55941;50.800;4.342;2023-03-01T03:05:38;12.50;;;7.82;;
34832;SDS011;55941;50.800;4.342;2023-03-01T03:08:04;13.07;;;8.00;;
34832;SDS011;55941;50.800;4.342;2023-03-01T03:10:34;12.07;;;6.97;;
34832;SDS011;55941;50.800;4.342;2023-03-01T03:13:06;15.95;;;7.80;;
34832;SDS011;55941;50.800;4.342;2023-03-01T03:15:34;13.98;;;6.90;;
34832;SDS011;55941;50.800;4.342;2023-03-01T03:18:07;14.23;;;7.60;;
34832;SDS011;55941;50.800;4.342;2023-03-01T03:23:01;12.05;;;7.32;;
34832;SDS011;55941;50.800;4.342;2023-03-01T03:25:28;12.32;;;7.50;;
34832;SDS011;55941;50.800;4.342;2023-03-01T03:27:54;14.07;;;7.50;;
34832;SDS011;55941;50.800;4.342;2023-03-01T03:30:25;11.00;;;7.30;;
34832;SDS011;55941;50.800;4.342;2023-03-01T03:32:56;12.93;;;7.70;;
34832;SDS011;55941;50.800;4.342;2023-03-01T03:35:24;9.43;;;7.05;;
34832;SDS011;55941;50.800;4.342;2023-03-01T03:42:54;15.13;;;7.35;;
34832;SDS011;55941;50.800;4.342;2023-03-01T03:45:20;17.98;;;7.93;;
34832;SDS011;55941;50.800;4.342;2023-03-01T03:47:47;12.27;;;7.18;;
34832;SDS011;55941;50.800;4.342;2023-03-01T03:50:14;14.52;;;8.18;;
34832;SDS011;55941;50.800;4.342;2023-03-01T03:52:42;13.35;;;8.35;;
34832;SDS011;55941;50.800;4.342;2023-03-01T03:55:09;11.80;;;7.65;;
34832;SDS011;55941;50.800;4.342;2023-03-01T03:57:37;15.55;;;8.20;;
34832;SDS011;55941;50.800;4.342;2023-03-01T04:00:04;12.27;;;7.82;;
34832;SDS011;55941;50.800;4.342;2023-03-01T04:02:37;16.08;;;8.63;;
34832;SDS011;55941;50.800;4.342;2023-03-01T04:05:06;14.65;;;7.80;;
34832;SDS011;55941;50.800;4.342;2023-03-01T04:07:33;10.80;;;7.88;;
34832;SDS011;55941;50.800;4.342;2023-03-01T04:10:00;14.73;;;8.65;;
34832;SDS011;55941;50.800;4.342;2023-03-01T04:12:29;15.05;;;9.32;;
34832;SDS011;55941;50.800;4.342;2023-03-01T04:14:55;14.23;;;8.75;;
34832;SDS011;55941;50.800;4.342;2023-03-01T04:17:21;13.93;;;7.55;;
34832;SDS011;55941;50.800;4.342;2023-03-01T04:19:47;13.70;;;8.13;;
34832;SDS011;55941;50.800;4.342;2023-03-01T04:22:14;14.93;;;8.07;;
34832;SDS011;55941;50.800;4.342;2023-03-01T04:24:43;14.13;;;8.63;;
34832;SDS011;55941;50.800;4.342;2023-03-01T04:27:10;12.32;;;8.15;;
34832;SDS011;55941;50.800;4.342;2023-03-01T04:29:36;14.82;;;7.95;;
34832;SDS011;55941;50.800;4.342;2023-03-01T04:32:02;13.02;;;8.00;;
34832;SDS011;55941;50.800;4.342;2023-03-01T04:34:28;13.13;;;7.55;;
34832;SDS011;55941;50.800;4.342;2023-03-01T04:36:55;14.88;;;8.43;;
34832;SDS011;55941;50.800;4.342;2023-03-01T04:39:20;13.50;;;8.50;;
34832;SDS011;55941;50.800;4.342;2023-03-01T04:41:47;12.90;;;7.45;;
34832;SDS011;55941;50.800;4.342;2023-03-01T04:44:13;15.88;;;8.48;;
34832;SDS011;55941;50.800;4.342;2023-03-01T04:46:39;14.50;;;8.20;;
34832;SDS011;55941;50.800;4.342;2023-03-01T04:49:04;19.38;;;7.82;;
34832;SDS011;55941;50.800;4.342;2023-03-01T04:51:31;15.48;;;8.35;;
34832;SDS011;55941;50.800;4.342;2023-03-01T04:53:57;14.75;;;9.45;;
34832;SDS011;55941;50.800;4.342;2023-03-01T04:56:23;13.45;;;8.32;;
34832;SDS011;55941;50.800;4.342;2023-03-01T04:58:49;15.57;;;8.98;;
34832;SDS011;55941;50.800;4.342;2023-03-01T05:01:18;22.75;;;9.05;;
34832;SDS011;55941;50.800;4.342;2023-03-01T05:03:48;17.38;;;9.20;;
34832;SDS011;55941;50.800;4.342;2023-03-01T05:06:16;14.00;;;8.45;;
34832;SDS011;55941;50.800;4.342;2023-03-01T05:08:44;14.73;;;8.82;;
34832;SDS011;55941;50.800;4.342;2023-03-01T05:11:10;13.73;;;8.75;;
34832;SDS011;55941;50.800;4.342;2023-03-01T05:13:37;12.70;;;8.27;;
34832;SDS011;55941;50.800;4.342;2023-03-01T05:16:05;17.13;;;9.30;;
34832;SDS011;55941;50.800;4.342;2023-03-01T05:18:36;16.13;;;8.60;;
34832;SDS011;55941;50.800;4.342;2023-03-01T05:21:06;14.15;;;8.55;;
34832;SDS011;55941;50.800;4.342;2023-03-01T05:23:37;14.10;;;8.48;;
34832;SDS011;55941;50.800;4.342;2023-03-01T05:26:05;12.32;;;8.57;;
34832;SDS011;55941;50.800;4.342;2023-03-01T05:28:32;13.77;;;8.40;;
34832;SDS011;55941;50.800;4.342;2023-03-01T05:30:58;15.27;;;8.77;;
34832;SDS011;55941;50.800;4.342;2023-03-01T05:33:24;17.23;;;9.02;;
34832;SDS011;55941;50.800;4.342;2023-03-01T05:35:51;18.90;;;9.27;;
34832;SDS011;55941;50.800;4.342;2023-03-01T05:38:18;22.25;;;9.82;;
34832;SDS011;55941;50.800;4.342;2023-03-01T05:40:46;16.17;;;9.27;;
34832;SDS011;55941;50.800;4.342;2023-03-01T05:43:13;17.73;;;9.48;;
34832;SDS011;55941;50.800;4.342;2023-03-01T05:45:40;13.60;;;8.63;;
34832;SDS011;55941;50.800;4.342;2023-03-01T05:48:08;11.70;;;8.02;;
34832;SDS011;55941;50.800;4.342;2023-03-01T05:50:36;17.73;;;9.18;;
34832;SDS011;55941;50.800;4.342;2023-03-01T05:53:06;13.98;;;9.00;;
34832;SDS011;55941;50.800;4.342;2023-03-01T05:55:35;19.13;;;8.95;;
34832;SDS011;55941;50.800;4.342;2023-03-01T05:58:02;16.15;;;9.18;;
34832;SDS011;55941;50.800;4.342;2023-03-01T06:00:30;13.57;;;8.95;;
34832;SDS011;55941;50.800;4.342;2023-03-01T06:02:56;16.17;;;9.00;;
34832;SDS011;55941;50.800;4.342;2023-03-01T06:05:24;14.75;;;8.55;;
34832;SDS011;55941;50.800;4.342;2023-03-01T06:07:51;19.73;;;8.90;;
34832;SDS011;55941;50.800;4.342;2023-03-01T06:10:18;16.70;;;8.30;;
34832;SDS011;55941;50.800;4.342;2023-03-01T06:12:46;14.18;;;8.65;;
34832;SDS011;55941;50.800;4.342;2023-03-01T06:15:13;15.27;;;8.98;;
34832;SDS011;55941;50.800;4.342;2023-03-01T06:17:41;14.13;;;8.52;;
34832;SDS011;55941;50.800;4.342;2023-03-01T06:20:09;15.10;;;9.27;;
34832;SDS011;55941;50.800;4.342;2023-03-01T06:22:43;18.38;;;9.23;;
34832;SDS011;55941;50.800;4.342;2023-03-01T06:25:10;17.73;;;9.00;;
34832;SDS011;55941;50.800;4.342;2023-03-01T06:27:37;14.52;;;8.73;;
34832;SDS011;55941;50.800;4.342;2023-03-01T06:30:04;17.67;;;9.07;;
34832;SDS011;55941;50.800;4.342;2023-03-01T06:32:32;18.25;;;9.35;;
34832;SDS011;55941;50.800;4.342;2023-03-01T06:34:58;19.73;;;8.77;;
34832;SDS011;55941;50.800;4.342;2023-03-01T06:37:24;31.05;;;9.80;;
34832;SDS011;55941;50.800;4.342;2023-03-01T06:39:50;15.07;;;10.05;;
34832;SDS011;55941;50.800;4.342;2023-03-01T06:42:16;15.02;;;9.38;;
34832;SDS011;55941;50.800;4.342;2023-03-01T06:44:43;17.33;;;9.18;;
34832;SDS011;55941;50.800;4.342;2023-03-01T06:47:09;14.23;;;9.05;;
34832;SDS011;55941;50.800;4.342;2023-03-01T06:49:35;16.98;;;10.52;;
34832;SDS011;55941;50.800;4.342;2023-03-01T06:52:01;17.05;;;8.85;;
34832;SDS011;55941;50.800;4.342;2023-03-01T06:54:27;15.80;;;10.38;;
34832;SDS011;55941;50.800;4.342;2023-03-01T06:56:53;18.35;;;10.10;;
34832;SDS011;55941;50.800;4.342;2023-03-01T06:59:19;19.48;;;10.25;;
34832;SDS011;55941;50.800;4.342;2023-03-01T07:01:46;18.60;;;9.90;;
34832;SDS011;55941;50.800;4.342;2023-03-01T07:04:12;17.35;;;10.00;;
34832;SDS011;55941;50.800;4.342;2023-03-01T07:06:39;20.05;;;9.88;;
34832;SDS011;55941;50.800;4.342;2023-03-01T07:09:05;19.85;;;9.00;;
34832;SDS011;55941;50.800;4.342;2023-03-01T07:11:30;18.60;;;10.20;;
34832;SDS011;55941;50.800;4.342;2023-03-01T07:13:57;16.90;;;9.25;;
34832;SDS011;55941;50.800;4.342;2023-03-01T07:16:25;19.25;;;9.80;;
34832;SDS011;55941;50.800;4.342;2023-03-01T07:18:50;23.17;;;10.05;;
34832;SDS011;55941;50.800;4.342;2023-03-01T07:21:16;23.83;;;10.13;;
34832;SDS011;55941;50.800;4.342;2023-03-01T07:23:42;18.95;;;10.45;;
34832;SDS011;55941;50.800;4.342;2023-03-01T07:26:08;20.58;;;10.05;;
34832;SDS011;55941;50.800;4.342;2023-03-01T07:28:34;24.60;;;10.00;;
34832;SDS011;55941;50.800;4.342;2023-03-01T07:31:04;16.70;;;9.82;;
34832;SDS011;55941;50.800;4.342;2023-03-01T07:33:31;20.42;;;9.93;;
34832;SDS011;55941;50.800;4.342;2023-03-01T07:35:57;24.90;;;10.65;;
34832;SDS011;55941;50.800;4.342;2023-03-01T07:38:24;22.35;;;10.30;;
34832;SDS011;55941;50.800;4.342;2023-03-01T07:40:51;17.40;;;10.18;;
34832;SDS011;55941;50.800;4.342;2023-03-01T07:43:17;17.58;;;10.07;;
34832;SDS011;55941;50.800;4.342;2023-03-01T07:45:44;17.95;;;10.45;;
34832;SDS011;55941;50.800;4.342;2023-03-01T07:48:10;19.10;;;10.32;;
34832;SDS011;55941;50.800;4.342;2023-03-01T07:50:36;19.08;;;10.40;;
34832;SDS011;55941;50.800;4.342;2023-03-01T07:53:02;23.88;;;11.00;;
34832;SDS011;55941;50.800;4.342;2023-03-01T07:55:27;25.25;;;9.98;;
34832;SDS011;55941;50.800;4.342;2023-03-01T07:57:53;16.15;;;10.20;;
34832;SDS011;55941;50.800;4.342;2023-03-01T08:00:22;21.25;;;10.65;;
34832;SDS011;55941;50.800;4.342;2023-03-01T08:02:48;25.65;;;10.93;;
34832;SDS011;55941;50.800;4.342;2023-03-01T08:05:14;22.92;;;11.52;;
34832;SDS011;55941;50.800;4.342;2023-03-01T08:07:41;25.63;;;11.02;;
34832;SDS011;55941;50.800;4.342;2023-03-01T08:10:06;14.80;;;10.35;;
34832;SDS011;55941;50.800;4.342;2023-03-01T08:12:32;20.92;;;9.65;;
34832;SDS011;55941;50.800;4.342;2023-03-01T08:14:58;23.30;;;9.85;;
34832;SDS011;55941;50.800;4.342;2023-03-01T08:17:25;17.23;;;10.10;;
34832;SDS011;55941;50.800;4.342;2023-03-01T08:19:51;16.60;;;10.18;;
34832;SDS011;55941;50.800;4.342;2023-03-01T08:22:17;18.63;;;11.32;;
34832;SDS011;55941;50.800;4.342;2023-03-01T08:24:43;18.17;;;10.57;;
34832;SDS011;55941;50.800;4.342;2023-03-01T08:27:11;18.08;;;10.40;;
34832;SDS011;55941;50.800;4.342;2023-03-01T08:29:38;24.13;;;10.80;;
34832;SDS011;55941;50.800;4.342;2023-03-01T08:32:03;17.65;;;10.45;;
34832;SDS011;55941;50.800;4.342;2023-03-01T08:34:29;18.75;;;10.55;;
34832;SDS011;55941;50.800;4.342;2023-03-01T08:36:56;23.50;;;11.50;;
34832;SDS011;55941;50.800;4.342;2023-03-01T08:39:22;24.45;;;11.23;;
34832;SDS011;55941;50.800;4.342;2023-03-01T08:41:48;18.60;;;11.60;;
34832;SDS011;55941;50.800;4.342;2023-03-01T08:44:14;19.38;;;11.25;;
34832;SDS011;55941;50.800;4.342;2023-03-01T08:46:41;19.70;;;10.43;;
34832;SDS011;55941;50.800;4.342;2023-03-01T08:49:09;20.58;;;10.63;;
34832;SDS011;55941;50.800;4.342;2023-03-01T08:51:39;20.05;;;10.90;;
34832;SDS011;55941;50.800;4.342;2023-03-01T08:54:12;24.55;;;11.02;;
34832;SDS011;55941;50.800;4.342;2023-03-01T08:56:40;18.25;;;10.68;;
34832;SDS011;55941;50.800;4.342;2023-03-01T08:59:06;21.83;;;10.98;;
34832;SDS011;55941;50.800;4.342;2023-03-01T09:01:33;23.20;;;10.52;;
34832;SDS011;55941;50.800;4.342;2023-03-01T09:03:59;25.80;;;10.20;;
34832;SDS011;55941;50.800;4.342;2023-03-01T09:06:24;19.25;;;11.10;;
34832;SDS011;55941;50.800;4.342;2023-03-01T09:08:50;21.23;;;10.80;;
34832;SDS011;55941;50.800;4.342;2023-03-01T09:11:18;17.95;;;10.55;;
34832;SDS011;55941;50.800;4.342;2023-03-01T09:13:46;24.27;;;11.65;;
34832;SDS011;55941;50.800;4.342;2023-03-01T09:16:14;19.67;;;11.23;;
34832;SDS011;55941;50.800;4.342;2023-03-01T09:18:42;19.15;;;10.52;;
34832;SDS011;55941;50.800;4.342;2023-03-01T09:21:10;25.25;;;11.38;;
34832;SDS011;55941;50.800;4.342;2023-03-01T09:23:39;21.63;;;10.70;;
34832;SDS011;55941;50.800;4.342;2023-03-01T09:26:07;19.10;;;10.50;;
34832;SDS011;55941;50.800;4.342;2023-03-01T09:28:36;27.63;;;11.70;;
34832;SDS011;55941;50.800;4.342;2023-03-01T09:31:03;17.83;;;11.00;;
34832;SDS011;55941;50.800;4.342;2023-03-01T09:33:29;18.90;;;10.95;;
34832;SDS011;55941;50.800;4.342;2023-03-01T09:36:00;25.10;;;11.25;;
34832;SDS011;55941;50.800;4.342;2023-03-01T09:38:28;20.40;;;11.45;;
34832;SDS011;55941;50.800;4.342;2023-03-01T09:40:54;18.40;;;10.50;;
34832;SDS011;55941;50.800;4.342;2023-03-01T09:43:26;19.80;;;11.82;;
34832;SDS011;55941;50.800;4.342;2023-03-01T09:46:08;21.45;;;11.95;;
34832;SDS011;55941;50.800;4.342;2023-03-01T09:48:41;19.70;;;11.98;;
34832;SDS011;55941;50.800;4.342;2023-03-01T09:51:16;19.15;;;11.52;;
34832;SDS011;55941;50.800;4.342;2023-03-01T09:53:45;21.38;;;11.57;;
34832;SDS011;55941;50.800;4.342;2023-03-01T09:56:22;20.33;;;11.63;;
34832;SDS011;55941;50.800;4.342;2023-03-01T09:58:58;21.50;;;12.27;;
34832;SDS011;55941;50.800;4.342;2023-03-01T10:09:48;20.67;;;12.48;;
34832;SDS011;55941;50.800;4.342;2023-03-01T10:12:18;21.10;;;11.98;;
34832;SDS011;55941;50.800;4.342;2023-03-01T10:15:32;19.42;;;12.15;;
34832;SDS011;55941;50.800;4.342;2023-03-01T10:17:57;23.40;;;13.20;;
34832;SDS011;55941;50.800;4.342;2023-03-01T10:20:39;18.42;;;11.63;;
34832;SDS011;55941;50.800;4.342;2023-03-01T10:23:11;20.97;;;12.40;;
34832;SDS011;55941;50.800;4.342;2023-03-01T10:28:30;18.92;;;12.13;;
34832;SDS011;55941;50.800;4.342;2023-03-01T10:31:13;21.98;;;11.48;;
34832;SDS011;55941;50.800;4.342;2023-03-01T10:33:52;23.88;;;11.30;;
34832;SDS011;55941;50.800;4.342;2023-03-01T10:36:20;20.30;;;12.25;;
34832;SDS011;55941;50.800;4.342;2023-03-01T10:38:54;23.60;;;12.05;;
34832;SDS011;55941;50.800;4.342;2023-03-01T10:41:23;20.48;;;11.45;;
34832;SDS011;55941;50.800;4.342;2023-03-01T10:43:55;19.77;;;12.00;;
34832;SDS011;55941;50.800;4.342;2023-03-01T10:51:43;19.75;;;11.65;;
34832;SDS011;55941;50.800;4.342;2023-03-01T10:54:25;22.13;;;11.38;;
34832;SDS011;55941;50.800;4.342;2023-03-01T10:56:59;22.80;;;10.90;;
34832;SDS011;55941;50.800;4.342;2023-03-01T10:59:31;22.58;;;11.20;;
34832;SDS011;55941;50.800;4.342;2023-03-01T11:02:03;17.15;;;10.40;;
34832;SDS011;55941;50.800;4.342;2023-03-01T11:04:58;15.90;;;11.05;;
34832;SDS011;55941;50.800;4.342;2023-03-01T11:07:26;29.42;;;11.70;;
34832;SDS011;55941;50.800;4.342;2023-03-01T11:09:52;16.17;;;9.80;;
34832;SDS011;55941;50.800;4.342;2023-03-01T11:12:20;16.20;;;10.40;;
34832;SDS011;55941;50.800;4.342;2023-03-01T11:14:47;18.95;;;10.43;;
34832;SDS011;55941;50.800;4.342;2023-03-01T11:17:34;28.88;;;10.32;;
34832;SDS011;55941;50.800;4.342;2023-03-01T11:25:37;18.38;;;10.50;;
34832;SDS011;55941;50.800;4.342;2023-03-01T11:28:06;17.17;;;10.07;;
34832;SDS011;55941;50.800;4.342;2023-03-01T11:30:44;15.80;;;9.27;;
34832;SDS011;55941;50.800;4.342;2023-03-01T11:33:39;16.73;;;9.30;;
34832;SDS011;55941;50.800;4.342;2023-03-01T11:38:40;13.88;;;8.65;;
34832;SDS011;55941;50.800;4.342;2023-03-01T11:41:08;19.15;;;9.05;;
34832;SDS011;55941;50.800;4.342;2023-03-01T12:09:37;8.05;;;5.35;;
34832;SDS011;55941;50.800;4.342;2023-03-01T12:20:23;11.52;;;6.90;;
34832;SDS011;55941;50.800;4.342;2023-03-01T12:28:19;8.40;;;6.22;;
34832;SDS011;55941;50.800;4.342;2023-03-01T12:42:16;12.73;;;6.30;;
34832;SDS011;55941;50.800;4.342;2023-03-01T12:50:39;17.15;;;6.65;;
34832;SDS011;55941;50.800;4.342;2023-03-01T12:53:28;9.02;;;5.85;;
34832;SDS011;55941;50.800;4.342;2023-03-01T12:56:08;11.90;;;5.50;;
34832;SDS011;55941;50.800;4.342;2023-03-01T13:04:25;10.77;;;6.15;;
34832;SDS011;55941;50.800;4.342;2023-03-01T13:10:02;12.15;;;5.80;;
34832;SDS011;55941;50.800;4.342;2023-03-01T13:17:48;17.58;;;6.72;;
34832;SDS011;55941;50.800;4.342;2023-03-01T13:20:16;11.38;;;6.25;;
34832;SDS011;55941;50.800;4.342;2023-03-01T13:22:45;8.75;;;6.07;;
34832;SDS011;55941;50.800;4.342;2023-03-01T13:25:17;9.70;;;6.50;;
34832;SDS011;55941;50.800;4.342;2023-03-01T13:27:45;11.15;;;6.28;;
34832;SDS011;55941;50.800;4.342;2023-03-01T13:35:53;12.40;;;6.47;;
34832;SDS011;55941;50.800;4.342;2023-03-01T13:38:37;14.10;;;7.43;;
34832;SDS011;55941;50.800;4.342;2023-03-01T13:41:03;9.32;;;6.15;;
34832;SDS011;55941;50.800;4.342;2023-03-01T13:43:31;13.05;;;6.53;;
34832;SDS011;55941;50.800;4.342;2023-03-01T13:45:59;14.77;;;6.53;;
34832;SDS011;55941;50.800;4.342;2023-03-01T13:48:32;12.00;;;6.10;;
34832;SDS011;55941;50.800;4.342;2023-03-01T13:51:00;15.30;;;7.80;;
34832;SDS011;55941;50.800;4.342;2023-03-01T13:53:33;9.88;;;6.57;;
34832;SDS011;55941;50.800;4.342;2023-03-01T13:56:02;10.55;;;6.43;;
34832;SDS011;55941;50.800;4.342;2023-03-01T13:58:44;18.95;;;6.63;;
34832;SDS011;55941;50.800;4.342;2023-03-01T14:01:20;22.52;;;6.85;;
34832;SDS011;55941;50.800;4.342;2023-03-01T14:03:49;14.07;;;7.15;;
34832;SDS011;55941;50.800;4.342;2023-03-01T14:06:16;12.93;;;6.82;;
34832;SDS011;55941;50.800;4.342;2023-03-01T14:08:47;14.63;;;6.60;;
34832;SDS011;55941;50.800;4.342;2023-03-01T14:14:21;28.70;;;8.00;;
34832;SDS011;55941;50.800;4.342;2023-03-01T14:17:15;15.82;;;6.95;;
34832;SDS011;55941;50.800;4.342;2023-03-01T14:22:46;13.85;;;7.05;;
34832;SDS011;55941;50.800;4.342;2023-03-01T14:25:19;14.32;;;6.65;;
34832;SDS011;55941;50.800;4.342;2023-03-01T14:28:04;28.65;;;7.20;;
34832;SDS011;55941;50.800;4.342;2023-03-01T14:30:43;16.63;;;6.82;;
34832;SDS011;55941;50.800;4.342;2023-03-01T14:33:44;10.98;;;6.38;;
34832;SDS011;55941;50.800;4.342;2023-03-01T14:36:07;10.73;;;6.50;;
34832;SDS011;55941;50.800;4.342;2023-03-01T14:38:44;10.52;;;6.38;;
34832;SDS011;55941;50.800;4.342;2023-03-01T14:41:13;13.45;;;6.10;;
34832;SDS011;55941;50.800;4.342;2023-03-01T14:43:49;9.65;;;6.78;;
34832;SDS011;55941;50.800;4.342;2023-03-01T14:46:25;16.35;;;7.20;;
34832;SDS011;55941;50.800;4.342;2023-03-01T14:48:58;10.95;;;6.53;;
34832;SDS011;55941;50.800;4.342;2023-03-01T14:51:30;13.60;;;6.38;;
34832;SDS011;55941;50.800;4.342;2023-03-01T14:54:00;11.00;;;6.30;;
34832;SDS011;55941;50.800;4.342;2023-03-01T14:56:26;16.08;;;6.88;;
34832;SDS011;55941;50.800;4.342;2023-03-01T14:58:53;12.32;;;6.82;;
34832;SDS011;55941;50.800;4.342;2023-03-01T15:01:22;12.50;;;7.15;;
34832;SDS011;55941;50.800;4.342;2023-03-01T15:03:49;13.35;;;7.13;;
34832;SDS011;55941;50.800;4.342;2023-03-01T15:06:19;10.23;;;6.88;;
34832;SDS011;55941;50.800;4.342;2023-03-01T15:08:48;17.85;;;7.55;;
34832;SDS011;55941;50.800;4.342;2023-03-01T15:11:23;12.85;;;7.05;;
34832;SDS011;55941;50.800;4.342;2023-03-01T15:13:53;10.57;;;6.65;;
34832;SDS011;55941;50.800;4.342;2023-03-01T15:16:23;10.32;;;7.40;;
34832;SDS011;55941;50.800;4.342;2023-03-01T15:21:22;9.07;;;6.80;;
34832;SDS011;55941;50.800;4.342;2023-03-01T15:23:53;16.02;;;7.38;;
34832;SDS011;55941;50.800;4.342;2023-03-01T15:26:32;12.18;;;6.95;;
34832;SDS011;55941;50.800;4.342;2023-03-01T15:29:02;11.70;;;6.93;;
34832;SDS011;55941;50.800;4.342;2023-03-01T15:31:36;9.60;;;6.90;;
34832;SDS011;55941;50.800;4.342;2023-03-01T15:34:07;12.63;;;7.90;;
34832;SDS011;55941;50.800;4.342;2023-03-01T15:36:40;12.48;;;7.25;;
34832;SDS011;55941;50.800;4.342;2023-03-01T15:42:09;12.60;;;8.18;;
34832;SDS011;55941;50.800;4.342;2023-03-01T15:44:38;18.65;;;8.75;;
34832;SDS011;55941;50.800;4.342;2023-03-01T15:47:26;21.00;;;9.10;;
34832;SDS011;55941;50.800;4.342;2023-03-01T15:49:55;13.15;;;8.13;;
34832;SDS011;55941;50.800;4.342;2023-03-01T15:52:27;18.95;;;9.30;;
34832;SDS011;55941;50.800;4.342;2023-03-01T15:55:02;17.88;;;8.88;;
34832;SDS011;55941;50.800;4.342;2023-03-01T15:57:31;14.65;;;8.30;;
34832;SDS011;55941;50.800;4.342;2023-03-01T15:59:58;13.55;;;8.27;;
34832;SDS011;55941;50.800;4.342;2023-03-01T16:02:24;19.48;;;8.98;;
34832;SDS011;55941;50.800;4.342;2023-03-01T16:04:51;13.23;;;8.38;;
34832;SDS011;55941;50.800;4.342;2023-03-01T16:07:18;14.63;;;8.88;;
34832;SDS011;55941;50.800;4.342;2023-03-01T16:09:44;27.48;;;9.00;;
34832;SDS011;55941;50.800;4.342;2023-03-01T16:12:14;21.40;;;8.77;;
34832;SDS011;55941;50.800;4.342;2023-03-01T16:14:41;16.90;;;8.55;;
34832;SDS011;55941;50.800;4.342;2023-03-01T16:17:07;16.73;;;8.27;;
34832;SDS011;55941;50.800;4.342;2023-03-01T16:19:35;17.95;;;8.55;;
34832;SDS011;55941;50.800;4.342;2023-03-01T16:22:02;15.88;;;8.35;;
34832;SDS011;55941;50.800;4.342;2023-03-01T16:24:29;17.25;;;8.13;;
34832;SDS011;55941;50.800;4.342;2023-03-01T16:26:55;13.57;;;7.80;;
34832;SDS011;55941;50.800;4.342;2023-03-01T16:29:21;16.15;;;8.52;;
34832;SDS011;55941;50.800;4.342;2023-03-01T16:31:47;13.75;;;7.75;;
34832;SDS011;55941;50.800;4.342;2023-03-01T16:34:13;16.10;;;7.45;;
34832;SDS011;55941;50.800;4.342;2023-03-01T16:36:39;13.48;;;7.75;;
34832;SDS011;55941;50.800;4.342;2023-03-01T16:39:08;12.05;;;7.55;;
34832;SDS011;55941;50.800;4.342;2023-03-01T16:41:34;10.98;;;7.20;;
34832;SDS011;55941;50.800;4.342;2023-03-01T16:44:00;13.02;;;7.63;;
34832;SDS011;55941;50.800;4.342;2023-03-01T16:46:28;12.70;;;7.13;;
34832;SDS011;55941;50.800;4.342;2023-03-01T16:48:54;14.00;;;7.35;;
34832;SDS011;55941;50.800;4.342;2023-03-01T16:51:21;17.15;;;7.85;;
34832;SDS011;55941;50.800;4.342;2023-03-01T16:53:49;11.32;;;7.20;;